Flight Track Log - Related Links

Times and Time Zones

All times are in EDT time to prevent confusion due to time zone crossing. See the EVA191 flight status page for this flight to view local times or setup timezone preferences in your user account.

Time Position Orientation Groundspeed Altitude Reporting Facility
EDT Latitude Longitude Course Direction KTS MPH feet Rate Location/Type
Sat 11:55:49 PM 35.5392 139.7838 149° Southeast 154 177  Level FlightAware ADS-B
Sat 11:56:14 PM 35.5334 139.7881 149° Southeast 144 166 1,100 2,516 Climbing FlightAware ADS-B (EGKK / LGW)
Sat 11:56:20 PM 35.5233 139.7955 149° Southeast 145 167 1,300 2,100 Climbing FlightAware ADS-B (ZPPP / KMG)
Sat 11:56:34 PM 35.5140 139.8020 150° Southeast 145 167 1,800 1,862 Climbing FlightAware ADS-B (ZPPP / KMG)
Sat 11:56:49 PM 35.5057 139.8078 150° Southeast 145 167 2,200 2,087 Climbing FlightAware ADS-B (ZPPP / KMG)
Sat 11:56:57 PM 35.5334 139.7881 150° Southeast 145 167 2,600 2,000 Climbing FlightAware ADS-B (EGKK / LGW)
Sat 11:57:04 PM 35.4964 139.8143 150° Southeast 146 168 2,700 1,364 Climbing FlightAware ADS-B (ZPPP / KMG)
Sat 11:57:19 PM 35.4877 139.8204 149° Southeast 149 171 3,100 1,500 Climbing FlightAware ADS-B (ZPPP / KMG)
Sat 11:57:28 PM 35.4800 139.8255 154° Southeast 162 186 3,300 800 Climbing FlightAware ADS-B
Sat 11:57:34 PM 35.4789 139.8260 159° South 166 191 3,300  Level FlightAware ADS-B (ZPPP / KMG)
Sat 11:57:39 PM 35.4754 139.8270 167° South 169 194 3,300 600 Level FlightAware ADS-B (ZPPP / KMG)
Sat 11:57:44 PM 35.4701 139.8266 183° South 174 200 3,400 1,200 Climbing FlightAware ADS-B (ZPPP / KMG)
Sat 11:57:49 PM 35.4689 139.8263 198° South 180 207 3,500 1,000 Climbing FlightAware ADS-B (ZPPP / KMG)
Sat 11:57:50 PM 35.4636 139.8240 200° South 177 204 3,500 800 Level FlightAware ADS-B
Sat 11:58:04 PM 35.4540 139.8194 203° Southwest 205 236 3,700 1,448 Climbing FlightAware ADS-B (ZPPP / KMG)
Sat 11:58:19 PM 35.4408 139.8124 204° Southwest 221 254 4,200 3,000 Climbing FlightAware ADS-B (ZPPP / KMG)
Sat 11:58:20 PM 35.4387 139.8113 204° Southwest 223 257 4,500 3,200 Climbing FlightAware ADS-B (EGKK / LGW)
Sat 11:58:34 PM 35.4257 139.8043 204° Southwest 224 258 5,000 2,600 Climbing FlightAware ADS-B (ZPPP / KMG)
Sat 11:58:50 PM 35.4113 139.7965 204° Southwest 226 260 5,800 3,000 Climbing FlightAware ADS-B (ZPPP / KMG)
Sat 11:59:04 PM 35.3961 139.7886 203° Southwest 233 268 6,500 2,897 Climbing FlightAware ADS-B (ZPPP / KMG)
Sat 11:59:19 PM 35.3816 139.7812 203° Southwest 238 274 7,200 3,120 Climbing FlightAware ADS-B (ZPPP / KMG)
Sat 11:59:29 PM 35.3686 139.7747 203° Southwest 232 267 7,800 3,200 Climbing FlightAware ADS-B
Sat 11:59:34 PM 35.3667 139.7737 203° Southwest 239 275 8,000 2,800 Climbing FlightAware ADS-B (ZPPP / KMG)
Sat 11:59:44 PM 35.3586 139.7697 203° Southwest 239 275 8,500 3,200 Climbing FlightAware ADS-B (EGKK / LGW)
Sat 11:59:49 PM 35.3503 139.7654 203° Southwest 238 274 8,800 2,571 Climbing FlightAware ADS-B (ZPPP / KMG)
Sun 12:00:05 AM 35.3350 139.7577 203° Southwest 243 280 9,400 2,400 Climbing FlightAware ADS-B (ZPPP / KMG)
Sun 12:00:09 AM 35.3280 139.7541 203° Southwest 246 283 9,600 1,286 Climbing FlightAware ADS-B
Sun 12:00:19 AM 35.3189 139.7493 204° Southwest 264 304 9,700 750 Climbing FlightAware ADS-B (ZPPP / KMG)
Sun 12:00:25 AM 35.3131 139.7456 210° Southwest 271 312 9,800 1,091 Climbing FlightAware ADS-B (ZPPP / KMG)
Sun 12:00:30 AM 35.3082 139.7410 219° Southwest 277 319 9,900 1,579 Climbing FlightAware ADS-B (ZPPP / KMG)
Sun 12:00:44 AM 35.2959 139.7253 228° Southwest 299 344 10,300 1,448 Climbing FlightAware ADS-B (EGKK / LGW)
Sun 12:00:59 AM 35.2811 139.7055 228° Southwest 315 362 10,600 1,742 Climbing FlightAware ADS-B (ZPPP / KMG)
Sun 12:01:15 AM 35.2677 139.6874 228° Southwest 329 379 11,200 2,323 Climbing FlightAware ADS-B (EGKK / LGW)
Sun 12:01:30 AM 35.2483 139.6612 228° Southwest 336 387 11,800 2,600 Climbing FlightAware ADS-B (ZPPP / KMG)
Sun 12:01:45 AM 35.2342 139.6378 244° Southwest 344 396 12,500 2,526 Climbing FlightAware ADS-B (EGKK / LGW)
Sun 12:01:49 AM 35.2316 139.6297 249° West 344 396 12,600 3,600 Climbing FlightAware ADS-B (ZPPP / KMG)
Sun 12:01:50 AM 35.2301 139.6233 256° West 344 396 12,800 3,000 Climbing FlightAware ADS-B
Sun 12:01:59 AM 35.2289 139.6164 259° West 346 398 13,100 2,341 Climbing FlightAware ADS-B (ZPPP / KMG)
Sun 12:02:31 AM 35.2194 139.5490 259° West 358 412 14,400 2,419 Climbing FlightAware ADS-B (EGKK / LGW)
Sun 12:03:01 AM 35.2095 139.4886 259° West 374 430 15,600 2,548 Climbing FlightAware ADS-B (EGKK / LGW)
Sun 12:03:44 AM 35.1939 139.3967 258° West 383 441 17,500 2,514 Climbing FlightAware ADS-B (EGKK / LGW)
Sun 12:04:15 AM 35.1825 139.3298 258° West 390 449 18,700 2,381 Climbing FlightAware ADS-B (EGKK / LGW)
Sun 12:04:47 AM 35.1704 139.2596 258° West 397 457 20,000 2,516 Climbing FlightAware ADS-B
Sun 12:05:48 AM 35.1469 139.1208 258° West 401 461 22,600 2,118 Climbing FlightAware ADS-B
Sun 12:06:29 AM 35.1313 139.0293 258° West 416 479 23,600 1,537 Climbing FlightAware ADS-B
Sun 12:07:10 AM 35.1153 138.9366 259° West 425 489 24,700 1,575 Climbing FlightAware ADS-B
Sun 12:07:49 AM 35.0987 138.8405 259° West 437 503 25,700 1,671 Climbing FlightAware ADS-B
Sun 12:08:29 AM 35.0821 138.7451 259° West 439 505 26,900 1,546 Climbing FlightAware ADS-B
Sun 12:09:26 AM 35.0571 138.6017 258° West 453 521 28,200 1,485 Climbing FlightAware ADS-B
Sun 12:10:10 AM 35.0381 138.4940 258° West 452 520 29,400 1,590 Climbing FlightAware ADS-B
Sun 12:10:49 AM 35.0212 138.3984 258° West 453 521 30,400 1,636 Climbing FlightAware ADS-B
Sun 12:11:27 AM 35.0037 138.3005 258° West 449 517 31,500 1,704 Climbing FlightAware ADS-B
Sun 12:12:10 AM 34.9852 138.1966 258° West 444 511 32,700 1,537 Climbing FlightAware ADS-B
Sun 12:12:49 AM 34.9681 138.1013 259° West 441 507 33,600 1,443 Climbing FlightAware ADS-B
Sun 12:13:29 AM 34.9510 138.0069 259° West 435 501 34,600 1,500 Climbing FlightAware ADS-B
Sun 12:14:09 AM 34.9332 137.9087 259° West 427 491 35,600 1,620 Climbing FlightAware ADS-B
Sun 12:15:09 AM 34.9085 137.7733 259° West 407 468 37,300 1,366 Climbing FlightAware ADS-B
Sun 12:15:50 AM 34.8917 137.6817 259° West 399 459 37,900 350 Climbing FlightAware ADS-B
Sun 12:17:09 AM 34.8477 137.5136 245° Southwest 417 480 38,000 50 Climbing FlightAware ADS-B
Sun 12:17:49 AM 34.8075 137.4281 238° Southwest 419 482 38,000  Level FlightAware ADS-B
Sun 12:18:29 AM 34.7592 137.3541 228° Southwest 431 496 38,000  Level FlightAware ADS-B
Sun 12:19:08 AM 34.7069 137.2863 227° Southwest 430 495 38,000  Level FlightAware ADS-B
Sun 12:19:49 AM 34.6503 137.2126 227° Southwest 428 493 38,000  Level FlightAware ADS-B
Sun 12:20:29 AM 34.5990 137.1408 234° Southwest 418 481 38,000  Level FlightAware ADS-B
Sun 12:21:09 AM 34.5551 137.0686 234° Southwest 412 474 38,000  Level FlightAware ADS-B
Sun 12:22:09 AM 34.4850 136.9544 234° Southwest 413 475 38,000  Level FlightAware ADS-B
Sun 12:22:53 AM 34.4339 136.8713 234° Southwest 411 473 38,000  Level FlightAware ADS-B
Sun 12:25:23 AM 34.2621 136.5936 234° Southwest 412 474 38,000  Level FlightAware ADS-B
Sun 12:29:09 AM 34.0002 136.1742 234° Southwest 411 473 38,000  Level FlightAware ADS-B
Sun 12:29:40 AM 33.9677 136.1114 241° Southwest 404 465 38,000  Level FlightAware ADS-B
Sun 12:32:00 AM 33.8405 135.8600 239° Southwest  Level Estimated
Sun 12:33:00 AM 33.7858 135.7525 239° Southwest  Level Estimated
Sun 12:34:00 AM 33.7310 135.6451 239° Southwest  Level Estimated
Sun 12:35:00 AM 33.6762 135.5378 238° Southwest  Level Estimated
Sun 12:36:00 AM 33.6212 135.4307 238° Southwest  Level Estimated
Sun 12:37:00 AM 33.5662 135.3237 238° Southwest  Level Estimated
Sun 12:38:00 AM 33.5110 135.2169 238° Southwest  Level Estimated
Sun 12:39:00 AM 33.4558 135.1102 238° Southwest  Level Estimated
Sun 12:40:00 AM 33.4005 135.0036 238° Southwest  Level Estimated
Sun 12:41:00 AM 33.3451 134.8972 238° Southwest  Level Estimated
Sun 12:42:00 AM 33.2896 134.7909 238° Southwest  Level Estimated
Sun 12:43:00 AM 33.2340 134.6847 238° Southwest  Level Estimated
Sun 12:44:00 AM 33.1783 134.5787 238° Southwest  Level Estimated
Sun 12:45:00 AM 33.1226 134.4728 238° Southwest  Level Estimated
Sun 12:46:00 AM 33.0667 134.3671 238° Southwest  Level Estimated
Sun 12:47:00 AM 33.0107 134.2614 238° Southwest  Level Estimated
Sun 12:48:00 AM 32.9547 134.1560 238° Southwest  Level Estimated
Sun 12:49:00 AM 32.8986 134.0506 238° Southwest  Level Estimated
Sun 12:50:00 AM 32.8424 133.9454 238° Southwest  Level Estimated
Sun 12:51:00 AM 32.7861 133.8403 238° Southwest  Level Estimated
Sun 12:52:00 AM 32.7297 133.7354 237° Southwest  Level Estimated
Sun 12:53:00 AM 32.6732 133.6305 237° Southwest  Level Estimated
Sun 12:54:00 AM 32.6166 133.5258 237° Southwest  Level Estimated
Sun 12:55:00 AM 32.5600 133.4213 237° Southwest  Level Estimated
Sun 12:56:00 AM 32.5032 133.3169 237° Southwest  Level Estimated
Sun 12:57:00 AM 32.4464 133.2126 237° Southwest  Level Estimated
Sun 12:58:00 AM 32.3895 133.1084 237° Southwest  Level Estimated
Sun 12:59:00 AM 32.3325 133.0044 237° Southwest  Level Estimated
Sun 01:00:00 AM 32.2754 132.9005 237° Southwest  Level Estimated
Sun 01:01:00 AM 32.2183 132.7967 237° Southwest  Level Estimated
Sun 01:02:00 AM 32.1610 132.6931 237° Southwest  Level Estimated
Sun 01:03:00 AM 32.1037 132.5896 237° Southwest  Level Estimated
Sun 01:04:00 AM 32.0463 132.4862 237° Southwest  Level Estimated
Sun 01:05:00 AM 31.9888 132.3829 237° Southwest  Level Estimated
Sun 01:06:00 AM 31.9312 132.2798 237° Southwest  Level Estimated
Sun 01:07:00 AM 31.8735 132.1768 237° Southwest  Level Estimated
Sun 01:08:00 AM 31.8158 132.0740 237° Southwest  Level Estimated
Sun 01:09:00 AM 31.7579 131.9713 237° Southwest  Level Estimated
Sun 01:10:00 AM 31.7000 131.8687 236° Southwest  Level Estimated
Sun 01:11:00 AM 31.6420 131.7662 236° Southwest  Level Estimated
Sun 01:12:00 AM 31.5839 131.6638 236° Southwest  Level Estimated
Sun 01:13:00 AM 31.5258 131.5616 236° Southwest  Level Estimated
Sun 01:14:00 AM 31.4675 131.4595 236° Southwest  Level Estimated
Sun 01:15:00 AM 31.4092 131.3575 236° Southwest  Level Estimated
Sun 01:16:00 AM 31.3508 131.2557 236° Southwest  Level Estimated
Sun 01:17:00 AM 31.2923 131.1540 236° Southwest  Level Estimated
Sun 01:18:00 AM 31.2337 131.0524 236° Southwest  Level Estimated
Sun 01:19:00 AM 31.1751 130.9510 236° Southwest  Level Estimated
Sun 01:20:00 AM 31.1164 130.8496 236° Southwest  Level Estimated
Sun 01:21:00 AM 31.0576 130.7484 236° Southwest  Level Estimated
Sun 01:22:00 AM 30.9987 130.6473 236° Southwest  Level Estimated
Sun 01:23:00 AM 30.9397 130.5464 236° Southwest  Level Estimated
Sun 01:24:00 AM 30.8807 130.4456 236° Southwest  Level Estimated
Sun 01:25:00 AM 30.8216 130.3448 236° Southwest  Level Estimated
Sun 01:26:00 AM 30.7624 130.2442 236° Southwest  Level Estimated
Sun 01:27:00 AM 30.7031 130.1438 236° Southwest  Level Estimated
Sun 01:28:00 AM 30.6437 130.0435 236° Southwest  Level Estimated
Sun 01:29:00 AM 30.5843 129.9432 235° Southwest  Level Estimated
Sun 01:30:00 AM 30.5248 129.8432 235° Southwest  Level Estimated
Sun 01:31:00 AM 30.4652 129.7432 235° Southwest  Level Estimated
Sun 01:32:00 AM 30.4056 129.6433 235° Southwest  Level Estimated
Sun 01:33:00 AM 30.3458 129.5436 235° Southwest  Level Estimated
Sun 01:34:00 AM 30.2860 129.4440 235° Southwest  Level Estimated
Sun 01:35:00 AM 30.2262 129.3445 235° Southwest  Level Estimated
Sun 01:36:00 AM 30.1662 129.2452 235° Southwest  Level Estimated
Sun 01:37:00 AM 30.1062 129.1459 235° Southwest  Level Estimated
Sun 01:38:00 AM 30.0461 129.0468 235° Southwest  Level Estimated
Sun 01:39:00 AM 29.9859 128.9478 235° Southwest  Level Estimated
Sun 01:40:00 AM 29.9256 128.8489 235° Southwest  Level Estimated
Sun 01:41:00 AM 29.8653 128.7502 235° Southwest  Level Estimated
Sun 01:42:00 AM 29.8049 128.6515 235° Southwest  Level Estimated
Sun 01:43:00 AM 29.7444 128.5530 235° Southwest  Level Estimated
Sun 01:44:00 AM 29.6839 128.4546 235° Southwest  Level Estimated
Sun 01:45:00 AM 29.6232 128.3563 235° Southwest  Level Estimated
Sun 01:46:00 AM 29.5626 128.2581 235° Southwest  Level Estimated
Sun 01:47:00 AM 29.5018 128.1601 235° Southwest  Level Estimated
Sun 01:48:00 AM 29.4410 128.0622 235° Southwest  Level Estimated
Sun 01:49:00 AM 29.3800 127.9644 234° Southwest  Level Estimated
Sun 01:50:00 AM 29.3191 127.8667 234° Southwest  Level Estimated
Sun 01:51:00 AM 29.2580 127.7691 234° Southwest  Level Estimated
Sun 01:52:00 AM 29.1969 127.6716 234° Southwest  Level Estimated
Sun 01:53:00 AM 29.1357 127.5743 234° Southwest  Level Estimated
Sun 01:54:00 AM 29.0744 127.4771 234° Southwest  Level Estimated
Sun 01:55:00 AM 29.0131 127.3799 234° Southwest  Level Estimated
Sun 01:56:00 AM 28.9517 127.2829 234° Southwest  Level Estimated
Sun 01:57:00 AM 28.8902 127.1861 234° Southwest  Level Estimated
Sun 01:58:00 AM 28.8287 127.0893 234° Southwest  Level Estimated
Sun 01:59:00 AM 28.7671 126.9926 234° Southwest  Level Estimated
Sun 02:00:00 AM 28.7054 126.8961 234° Southwest  Level Estimated
Sun 02:01:00 AM 28.6437 126.7997 234° Southwest  Level Estimated
Sun 02:02:00 AM 28.5818 126.7034 234° Southwest  Level Estimated
Sun 02:03:00 AM 28.5200 126.6072 234° Southwest  Level Estimated
Sun 02:04:00 AM 28.4580 126.5111 234° Southwest  Level Estimated
Sun 02:05:00 AM 28.3960 126.4151 234° Southwest  Level Estimated
Sun 02:06:00 AM 28.3339 126.3192 234° Southwest  Level Estimated
Sun 02:07:00 AM 28.2717 126.2235 234° Southwest  Level Estimated
Sun 02:08:00 AM 28.2095 126.1279 234° Southwest  Level Estimated
Sun 02:09:00 AM 28.1472 126.0323 234° Southwest  Level Estimated
Sun 02:10:00 AM 28.0849 125.9369 233° Southwest  Level Estimated
Sun 02:11:00 AM 28.0225 125.8416 233° Southwest  Level Estimated
Sun 02:12:00 AM 27.9600 125.7464 233° Southwest  Level Estimated
Sun 02:13:00 AM 27.8974 125.6513 233° Southwest  Level Estimated
Sun 02:14:00 AM 27.8348 125.5564 233° Southwest  Level Estimated
Sun 02:15:00 AM 27.7721 125.4615 233° Southwest  Level Estimated
Sun 02:16:00 AM 27.7094 125.3667 233° Southwest  Level Estimated
Sun 02:17:00 AM 27.6466 125.2721 233° Southwest  Level Estimated
Sun 02:18:00 AM 27.5837 125.1775 233° Southwest  Level Estimated
Sun 02:19:00 AM 27.5208 125.0831 233° Southwest  Level Estimated
Sun 02:20:00 AM 27.4578 124.9888 233° Southwest  Level Estimated
Sun 02:21:00 AM 27.3947 124.8946 233° Southwest  Level Estimated
Sun 02:22:00 AM 27.3316 124.8005 233° Southwest  Level Estimated
Sun 02:23:00 AM 27.2684 124.7065 233° Southwest  Level Estimated
Sun 02:24:00 AM 27.2052 124.6126 233° Southwest  Level Estimated
Sun 02:25:00 AM 27.1418 124.5188 233° Southwest  Level Estimated
Sun 02:26:00 AM 27.0785 124.4251 233° Southwest  Level Estimated
Sun 02:27:00 AM 27.0150 124.3316 233° Southwest  Level Estimated
Sun 02:28:00 AM 26.9515 124.2381 233° Southwest  Level Estimated
Sun 02:29:00 AM 26.8880 124.1447 233° Southwest  Level Estimated
Sun 02:30:00 AM 26.8243 124.0515 233° Southwest  Level Estimated
Sun 02:31:00 AM 26.7606 123.9583 233° Southwest  Level Estimated
Sun 02:32:00 AM 26.6969 123.8653 233° Southwest  Level Estimated
Sun 02:33:00 AM 26.6331 123.7723 232° Southwest  Level Estimated
Sun 02:34:00 AM 26.5692 123.6795 232° Southwest  Level Estimated
Sun 02:35:00 AM 26.5053 123.5867 232° Southwest  Level Estimated
Sun 02:36:00 AM 26.4413 123.4941 232° Southwest  Level Estimated
Sun 02:37:00 AM 26.3773 123.4016 232° Southwest  Level Estimated
Sun 02:38:00 AM 26.3132 123.3092 232° Southwest  Level Estimated
Sun 02:39:00 AM 26.2490 123.2168 232° Southwest  Level Estimated
Sun 02:40:00 AM 26.1848 123.1246 232° Southwest  Level Estimated
Sun 02:41:00 AM 26.1205 123.0325 232° Southwest  Level Estimated
Sun 02:42:00 AM 26.0562 122.9405 232° Southwest  Level Estimated
Sun 02:43:00 AM 25.9918 122.8485 232° Southwest  Level Estimated
Sun 02:44:00 AM 25.9273 122.7567 232° Southwest  Level Estimated
Sun 02:45:00 AM 25.8628 122.6650 232° Southwest  Level Estimated
Sun 02:46:00 AM 25.7982 122.5734 232° Southwest  Level Estimated
Sun 02:47:00 AM 25.7336 122.4819 232° Southwest  Level Estimated
Sun 02:48:00 AM 25.6689 122.3904 232° Southwest  Level Estimated
Sun 02:49:00 AM 25.6041 122.2991 232° Southwest  Level Estimated
Sun 02:50:00 AM 25.5393 122.2079 232° Southwest  Level Estimated
Sun 02:51:00 AM 25.4745 122.1168 232° Southwest  Level Estimated
Sun 02:52:00 AM 25.4096 122.0257 232° Southwest  Level Estimated
Sun 02:53:00 AM 25.3446 121.9348 232° Southwest  Level Estimated
Sun 02:54:00 AM 25.2796 121.8440 232° Southwest  Level Estimated
Sun 02:55:00 AM 25.2145 121.7533 232° Southwest  Level Estimated
Sun 02:56:00 AM 25.1494 121.6626 232° Southwest  Level Estimated
Sun 02:57:00 AM 25.0842 121.5721 232° Southwest  Level Estimated
Sun 02:58:00 AM 25.0694 121.5517 231° Southwest  Level Estimated
Sun 02:59:00 AM 25.0694 121.5517 North  Level Estimated
Sun 03:00:00 AM 25.0694 121.5517 North  Level Estimated
Sun 03:01:00 AM 25.0694 121.5517 North  Level Estimated
Sun 03:02:00 AM 25.0694 121.5517 North  Level Estimated
Sun 03:03:00 AM 25.0694 121.5517 North  Level Estimated
Sun 03:04:00 AM 25.0694 121.5517 North  Level Estimated
Sun 03:05:00 AM 25.0694 121.5517 North  Level Estimated
Sun 03:06:00 AM 25.0694 121.5517 North  Level Estimated
Sun 03:07:00 AM 25.0694 121.5517 North  Level Estimated
Sun 03:08:00 AM 25.0694 121.5517 North  Level Estimated
Sun 03:09:00 AM 25.0694 121.5517 North  Level Estimated
Sun 03:10:00 AM 25.0694 121.5517 North  Level Estimated
Sun 03:11:00 AM 25.0694 121.5517 North  Level Estimated

Login

Don't have an account? Register now (free) for customized features, flight alerts, and more!